createdAt,value
2018-07-12T00:01:23.172Z,15.30
2018-07-12T00:03:50.507Z,15.30
2018-07-12T00:06:17.821Z,15.23
2018-07-12T00:08:45.412Z,15.53
2018-07-12T00:11:12.729Z,15.87
2018-07-12T00:13:40.423Z,18.80
2018-07-12T00:16:07.760Z,17.77
2018-07-12T00:18:35.075Z,18.80
2018-07-12T00:21:02.509Z,15.40
2018-07-12T00:23:29.844Z,19.20
2018-07-12T00:25:57.168Z,16.00
2018-07-12T00:28:24.819Z,18.40
2018-07-12T00:30:52.387Z,16.40
2018-07-12T00:33:19.972Z,16.40
2018-07-12T00:35:47.290Z,17.60
2018-07-12T00:38:14.624Z,22.03
2018-07-12T00:40:41.968Z,16.13
2018-07-12T00:43:09.345Z,18.30
2018-07-12T00:45:36.690Z,18.73
2018-07-12T00:48:04.084Z,15.30
2018-07-12T00:50:31.652Z,16.87
2018-07-12T00:52:59.240Z,20.30
2018-07-12T00:55:26.565Z,22.03
2018-07-12T00:57:53.908Z,20.30
2018-07-12T01:00:21.479Z,23.00
2018-07-12T01:02:49.085Z,23.47
2018-07-12T01:05:16.400Z,23.43
2018-07-12T01:07:43.712Z,24.00
2018-07-12T01:10:11.060Z,20.20
2018-07-12T01:12:38.412Z,19.40
2018-07-12T01:15:05.752Z,20.70
2018-07-12T01:17:33.076Z,28.23
2018-07-12T01:20:00.441Z,23.73
2018-07-12T01:22:27.776Z,22.23
2018-07-12T01:24:55.093Z,19.70
2018-07-12T01:27:22.436Z,25.83
2018-07-12T01:29:49.753Z,22.30
2018-07-12T01:32:17.068Z,24.40
2018-07-12T01:34:44.410Z,25.43
2018-07-12T01:37:11.729Z,26.40
2018-07-12T01:39:39.073Z,25.83
2018-07-12T01:42:06.454Z,25.10
2018-07-12T01:44:33.824Z,25.00
2018-07-12T01:47:01.161Z,28.83
2018-07-12T01:49:28.500Z,26.97
2018-07-12T01:51:55.844Z,25.93
2018-07-12T01:54:23.156Z,24.83
2018-07-12T01:56:50.500Z,27.07
2018-07-12T01:59:17.812Z,23.77
2018-07-12T02:01:45.123Z,26.63
2018-07-12T02:04:12.464Z,31.13
2018-07-12T02:06:39.784Z,29.30
2018-07-12T02:09:07.141Z,26.17
2018-07-12T02:11:34.554Z,34.47
2018-07-12T02:14:01.892Z,27.40
2018-07-12T02:16:29.216Z,31.00
2018-07-12T02:18:56.528Z,29.17
2018-07-12T02:21:23.866Z,30.20
2018-07-12T02:23:51.180Z,30.33
2018-07-12T02:26:18.517Z,31.83
2018-07-12T02:28:45.836Z,30.60
2018-07-12T02:31:13.432Z,29.23
2018-07-12T02:33:40.755Z,36.87
2018-07-12T02:36:08.328Z,27.90
2018-07-12T02:38:37.264Z,32.80
2018-07-12T02:41:04.589Z,31.87
2018-07-12T02:43:31.948Z,28.93
2018-07-12T02:45:59.284Z,34.50
2018-07-12T02:48:26.918Z,31.07
2018-07-12T02:50:54.249Z,28.67
2018-07-12T02:53:21.564Z,33.00
2018-07-12T02:55:48.922Z,39.27
2018-07-12T02:58:16.246Z,27.50
2018-07-12T03:00:43.837Z,32.33
2018-07-12T03:03:11.191Z,28.90
2018-07-12T03:05:38.596Z,31.17
2018-07-12T03:08:05.981Z,27.03
2018-07-12T03:10:33.576Z,36.30
2018-07-12T03:13:00.985Z,31.60
2018-07-12T03:15:28.317Z,37.83
2018-07-12T03:17:55.837Z,35.50
2018-07-12T03:20:23.227Z,29.17
2018-07-12T03:22:50.581Z,32.70
2018-07-12T03:25:17.958Z,35.20
2018-07-12T03:27:45.277Z,30.00
2018-07-12T03:30:12.591Z,33.73
2018-07-12T03:32:40.179Z,29.50
2018-07-12T03:35:07.493Z,40.40
2018-07-12T03:37:34.833Z,39.03
2018-07-12T03:40:02.152Z,39.03
2018-07-12T03:42:29.504Z,33.13
2018-07-12T03:44:56.816Z,33.50
2018-07-12T03:47:24.407Z,32.47
2018-07-12T03:49:51.727Z,30.77
2018-07-12T03:52:19.298Z,38.90
2018-07-12T03:54:46.896Z,33.73
2018-07-12T03:57:15.213Z,33.57
2018-07-12T03:59:42.553Z,31.00
2018-07-12T04:02:09.900Z,32.80
2018-07-12T04:04:37.226Z,29.70
2018-07-12T04:07:04.588Z,38.20
2018-07-12T04:09:31.908Z,37.87
2018-07-12T04:11:59.256Z,37.43
2018-07-12T04:14:26.579Z,34.83
2018-07-12T04:16:53.901Z,37.03
2018-07-12T04:19:21.256Z,38.00
2018-07-12T04:21:48.593Z,38.33
2018-07-12T04:24:15.960Z,36.33
2018-07-12T04:26:43.684Z,40.20
2018-07-12T04:29:11.000Z,37.30
2018-07-12T04:31:38.337Z,67.20
2018-07-12T04:34:05.663Z,36.53
2018-07-12T04:36:33.188Z,38.13
2018-07-12T04:39:00.502Z,33.10
2018-07-12T04:41:27.816Z,43.60
2018-07-12T04:43:55.465Z,36.90
2018-07-12T04:46:22.790Z,34.57
2018-07-12T04:48:50.124Z,33.17
2018-07-12T04:51:17.492Z,34.83
2018-07-12T04:53:45.236Z,37.40
2018-07-12T04:56:12.668Z,31.73
2018-07-12T04:58:40.303Z,33.40
2018-07-12T05:01:07.789Z,38.10
2018-07-12T05:03:35.379Z,42.20
2018-07-12T05:06:02.733Z,39.23
2018-07-12T05:08:30.053Z,40.70
2018-07-12T05:10:57.372Z,45.50
2018-07-12T05:13:24.729Z,37.90
2018-07-12T05:15:52.052Z,43.17
2018-07-12T05:18:19.429Z,38.87
2018-07-12T05:20:46.757Z,42.77
2018-07-12T05:23:14.596Z,37.70
2018-07-12T05:25:42.372Z,41.40
2018-07-12T05:28:10.152Z,39.57
2018-07-12T05:30:37.638Z,38.00
2018-07-12T05:33:04.993Z,39.67
2018-07-12T05:35:33.504Z,37.43
2018-07-12T05:38:02.016Z,40.90
2018-07-12T05:40:30.574Z,41.60
2018-07-12T05:42:59.109Z,37.60
2018-07-12T05:45:27.793Z,36.23
2018-07-12T05:47:56.349Z,32.27
2018-07-12T05:50:24.492Z,40.83
2018-07-12T05:52:53.005Z,36.83
2018-07-12T05:55:21.492Z,36.83
2018-07-12T05:57:49.953Z,30.83
2018-07-12T06:00:18.697Z,32.30
2018-07-12T06:02:47.190Z,33.63
2018-07-12T06:05:15.672Z,41.03
2018-07-12T06:07:44.128Z,27.90
2018-07-12T06:10:12.628Z,30.17
2018-07-12T06:12:41.088Z,26.27
2018-07-12T06:15:09.584Z,29.93
2018-07-12T06:17:38.053Z,26.23
2018-07-12T06:20:09.001Z,38.37
2018-07-12T06:22:37.480Z,30.63
2018-07-12T06:25:06.212Z,26.87
2018-07-12T06:27:34.814Z,23.93
2018-07-12T06:30:03.464Z,26.80
2018-07-12T06:32:31.864Z,27.70
2018-07-12T06:35:00.320Z,27.93
2018-07-12T06:37:28.805Z,28.33
2018-07-12T06:39:57.261Z,27.20
2018-07-12T06:42:25.777Z,28.87
2018-07-12T06:44:54.254Z,26.47
2018-07-12T06:47:22.733Z,29.20
2018-07-12T06:49:51.216Z,39.37
2018-07-12T06:52:19.696Z,24.93
2018-07-12T06:54:48.196Z,20.90
2018-07-12T06:57:16.714Z,19.70
2018-07-12T06:59:45.184Z,20.43
2018-07-12T07:02:13.642Z,19.10
2018-07-12T07:04:42.348Z,15.93
2018-07-12T07:07:11.084Z,17.57
2018-07-12T07:09:39.580Z,15.80
2018-07-12T07:12:08.116Z,15.97
2018-07-12T07:14:36.674Z,17.03
2018-07-12T07:17:04.844Z,16.43
2018-07-12T07:19:32.984Z,15.87
2018-07-12T07:22:01.468Z,15.07
2018-07-12T07:24:30.279Z,17.60
2018-07-12T07:26:58.773Z,17.63
2018-07-12T07:29:26.914Z,13.43
2018-07-12T07:31:56.472Z,13.80
2018-07-12T07:34:24.974Z,13.93
2018-07-12T07:36:53.453Z,14.03
2018-07-12T07:39:21.956Z,15.20
2018-07-12T07:41:50.432Z,15.10
2018-07-12T07:44:18.908Z,14.03
2018-07-12T07:46:47.400Z,11.97
2018-07-12T07:49:15.876Z,15.50
2018-07-12T07:51:44.357Z,12.60
2018-07-12T07:54:12.817Z,8.20
2018-07-12T07:56:41.300Z,9.87
2018-07-12T07:59:09.780Z,8.93
2018-07-12T08:01:38.240Z,10.37
2018-07-12T08:04:06.728Z,10.20
2018-07-12T08:06:35.194Z,10.23
2018-07-12T08:09:03.907Z,8.63
2018-07-12T08:11:32.397Z,8.53
2018-07-12T08:14:00.865Z,8.80
2018-07-12T08:16:29.488Z,11.73
2018-07-12T08:18:57.961Z,14.90
2018-07-12T08:21:26.465Z,9.67
2018-07-12T08:23:54.932Z,12.60
2018-07-12T08:26:23.404Z,7.70
2018-07-12T08:28:51.952Z,7.87
2018-07-12T08:31:20.491Z,8.50
2018-07-12T08:33:48.973Z,6.67
2018-07-12T08:36:17.490Z,6.37
2018-07-12T08:38:45.948Z,6.70
2018-07-12T08:41:14.424Z,5.83
2018-07-12T08:43:42.884Z,6.00
2018-07-12T08:46:11.403Z,5.03
2018-07-12T08:48:41.464Z,5.53
2018-07-12T08:51:09.973Z,5.00
2018-07-12T08:53:38.428Z,4.60
2018-07-12T08:56:06.920Z,4.80
2018-07-12T08:58:35.452Z,4.10
2018-07-12T09:01:03.924Z,4.77
2018-07-12T09:03:32.076Z,6.20
2018-07-12T09:06:00.561Z,6.00
2018-07-12T09:08:29.052Z,5.33
2018-07-12T09:10:57.553Z,6.20
2018-07-12T09:13:26.017Z,5.90
2018-07-12T09:15:54.520Z,5.87
2018-07-12T09:18:22.972Z,4.80
2018-07-12T09:20:51.485Z,4.80
2018-07-12T09:23:19.932Z,4.90
2018-07-12T09:25:48.448Z,4.90
2018-07-12T09:28:16.920Z,4.97
2018-07-12T09:30:45.430Z,4.50
2018-07-12T09:33:13.888Z,5.60
2018-07-12T09:35:42.340Z,4.70
2018-07-12T09:38:22.044Z,3.90
2018-07-12T09:40:50.553Z,4.77
2018-07-12T09:43:19.016Z,4.30
2018-07-12T09:45:47.493Z,4.77
2018-07-12T09:48:15.957Z,5.20
2018-07-12T09:50:44.447Z,5.20
2018-07-12T09:53:12.908Z,5.00
2018-07-12T09:55:41.431Z,5.23
2018-07-12T09:58:28.641Z,5.20
2018-07-12T10:01:02.645Z,4.47
2018-07-12T10:03:36.381Z,4.97
2018-07-12T10:06:10.288Z,3.97
2018-07-12T10:08:44.132Z,6.53
2018-07-12T10:11:17.764Z,4.30
2018-07-12T10:13:46.344Z,4.20
2018-07-12T10:16:20.188Z,3.63
2018-07-12T10:18:48.644Z,4.00
2018-07-12T10:21:17.101Z,4.40
2018-07-12T10:23:45.568Z,3.57
2018-07-12T10:26:14.024Z,3.67
2018-07-12T10:28:42.513Z,3.90
2018-07-12T10:31:11.004Z,3.93
2018-07-12T10:33:39.180Z,3.60
2018-07-12T10:36:07.348Z,3.43
2018-07-12T10:38:35.860Z,3.20
2018-07-12T10:41:04.413Z,3.40
2018-07-12T10:43:32.592Z,4.67
2018-07-12T10:46:00.764Z,3.90
2018-07-12T10:48:29.304Z,3.60
2018-07-12T10:50:57.812Z,3.13
2018-07-12T10:53:26.312Z,3.20
2018-07-12T10:55:54.475Z,3.23
2018-07-12T10:58:23.009Z,3.30
2018-07-12T11:00:51.500Z,3.30
2018-07-12T11:03:20.009Z,3.30
2018-07-12T11:05:48.516Z,2.53
2018-07-12T11:08:17.028Z,2.80
2018-07-12T11:10:45.513Z,3.40
2018-07-12T11:13:19.753Z,3.10
2018-07-12T11:15:48.613Z,3.17
2018-07-12T11:18:17.129Z,3.07
2018-07-12T11:20:45.591Z,2.97
2018-07-12T11:23:14.100Z,2.90
2018-07-12T11:25:42.692Z,2.90
2018-07-12T11:28:11.233Z,3.13
2018-07-12T11:30:39.319Z,2.73
2018-07-12T11:33:19.036Z,2.40
2018-07-12T11:35:47.494Z,3.13
2018-07-12T11:38:15.628Z,2.40
2018-07-12T11:40:44.121Z,2.27
2018-07-12T11:43:12.581Z,2.70
2018-07-12T11:45:41.068Z,2.40
2018-07-12T11:48:09.529Z,2.40
2018-07-12T11:50:38.012Z,2.63
2018-07-12T11:53:06.506Z,2.10
2018-07-12T11:55:34.965Z,2.13
2018-07-12T11:58:03.456Z,2.03
2018-07-12T12:00:31.933Z,1.90
2018-07-12T12:03:00.397Z,2.10
2018-07-12T12:05:28.893Z,2.17
2018-07-12T12:07:57.352Z,2.20
2018-07-12T12:10:25.836Z,2.13
2018-07-12T12:12:54.034Z,2.03
2018-07-12T12:15:22.489Z,2.00
2018-07-12T12:17:50.955Z,1.83
2018-07-12T12:20:19.100Z,1.83
2018-07-12T12:22:47.577Z,1.93
2018-07-12T12:25:16.049Z,1.53
2018-07-12T12:27:44.540Z,1.80
2018-07-12T12:30:13.004Z,1.73
2018-07-12T12:32:41.477Z,1.60
2018-07-12T12:35:09.957Z,1.70
2018-07-12T12:37:38.457Z,1.70
2018-07-12T12:40:06.968Z,1.57
2018-07-12T12:42:35.447Z,1.67
2018-07-12T12:45:04.096Z,1.73
2018-07-12T12:47:32.597Z,2.10
2018-07-12T12:50:01.150Z,1.70
2018-07-12T12:52:29.678Z,1.60
2018-07-12T12:54:58.201Z,1.60
2018-07-12T12:57:26.733Z,1.30
2018-07-12T12:59:55.305Z,1.50
2018-07-12T13:02:23.866Z,1.70
2018-07-12T13:04:52.382Z,1.40
2018-07-12T13:07:20.900Z,1.63
2018-07-12T13:09:49.106Z,1.43
2018-07-12T13:12:17.621Z,1.77
2018-07-12T13:14:46.378Z,1.50
2018-07-12T13:17:14.916Z,1.47
2018-07-12T13:19:43.459Z,1.53
2018-07-12T13:22:11.980Z,1.60
2018-07-12T13:24:40.169Z,1.43
2018-07-12T13:27:08.336Z,1.30
2018-07-12T13:29:36.465Z,1.30
2018-07-12T13:32:04.998Z,1.70
2018-07-12T13:34:33.128Z,1.30
2018-07-12T13:37:01.269Z,1.63
2018-07-12T13:39:29.744Z,1.40
2018-07-12T13:41:58.208Z,1.40
2018-07-12T13:44:26.528Z,1.50
2018-07-12T13:46:55.668Z,1.33
2018-07-12T13:49:24.155Z,1.30
2018-07-12T13:51:52.977Z,2.83
2018-07-12T13:54:21.728Z,1.43
2018-07-12T13:56:50.745Z,1.60
2018-07-12T13:59:19.217Z,1.60
2018-07-12T14:01:47.696Z,1.50
2018-07-12T14:04:15.831Z,1.70
2018-07-12T14:06:44.304Z,1.83
2018-07-12T14:09:13.568Z,1.70
2018-07-12T14:11:42.022Z,2.10
2018-07-12T14:14:10.500Z,1.70
2018-07-12T14:16:38.990Z,2.30
2018-07-12T14:19:07.205Z,11.20
2018-07-12T14:21:35.632Z,1.80
2018-07-12T14:24:04.148Z,1.73
2018-07-12T14:26:32.637Z,1.73
2018-07-12T14:29:01.107Z,2.20
2018-07-12T14:31:29.630Z,2.00
2018-07-12T14:33:58.088Z,2.20
2018-07-12T14:36:26.554Z,1.70
2018-07-12T14:38:55.033Z,2.40
2018-07-12T14:41:23.505Z,2.60
2018-07-12T14:43:51.667Z,2.20
2018-07-12T14:46:20.118Z,2.60
2018-07-12T14:48:48.585Z,2.07
2018-07-12T14:51:17.094Z,2.30
2018-07-12T14:53:45.564Z,2.10
2018-07-12T14:56:14.044Z,2.30
2018-07-12T14:58:42.492Z,2.23
2018-07-12T15:01:10.995Z,2.17
2018-07-12T15:03:39.456Z,1.97
2018-07-12T15:06:07.916Z,2.57
2018-07-12T15:08:36.408Z,2.30
2018-07-12T15:11:04.861Z,2.43
2018-07-12T15:13:33.348Z,2.33
2018-07-12T15:16:01.485Z,2.40
2018-07-12T15:18:29.951Z,2.47
2018-07-12T15:20:58.424Z,2.43
2018-07-12T15:23:26.896Z,2.20
2018-07-12T15:25:55.410Z,2.50
2018-07-12T15:28:23.867Z,2.83
2018-07-12T15:30:52.345Z,2.40
2018-07-12T15:33:20.809Z,2.63
2018-07-12T15:35:49.269Z,2.40
2018-07-12T15:38:17.438Z,2.20
2018-07-12T15:40:45.940Z,2.33
2018-07-12T15:43:14.392Z,4.00
2018-07-12T15:45:42.865Z,2.30
2018-07-12T15:48:11.356Z,4.83
2018-07-12T15:50:39.850Z,2.40
2018-07-12T15:53:08.399Z,2.30
2018-07-12T15:55:36.795Z,2.50
2018-07-12T15:58:08.825Z,2.50
2018-07-12T16:00:37.409Z,2.43
2018-07-12T16:03:05.912Z,3.03
2018-07-12T16:05:34.367Z,2.60
2018-07-12T16:08:02.868Z,2.30
2018-07-12T16:10:31.544Z,2.50
2018-07-12T16:13:00.869Z,2.90
2018-07-12T16:15:29.356Z,2.40
2018-07-12T16:17:57.816Z,2.90
2018-07-12T16:20:26.312Z,2.37
2018-07-12T16:22:54.764Z,2.60
2018-07-12T16:25:23.248Z,2.33
2018-07-12T16:27:53.820Z,2.50
2018-07-12T16:30:22.361Z,2.40
2018-07-12T16:32:50.524Z,2.83
2018-07-12T16:35:18.985Z,2.20
2018-07-12T16:37:47.480Z,2.47
2018-07-12T16:40:15.955Z,2.50
2018-07-12T16:42:44.468Z,3.17
2018-07-12T16:45:12.609Z,2.83
2018-07-12T16:47:41.969Z,6.20
2018-07-12T16:50:10.440Z,2.67
2018-07-12T16:52:38.932Z,2.80
2018-07-12T16:55:07.416Z,2.80
2018-07-12T16:57:35.872Z,2.60
2018-07-12T17:00:04.312Z,2.70
2018-07-12T17:02:33.632Z,2.67
2018-07-12T17:05:02.160Z,3.33
2018-07-12T17:07:30.688Z,3.00
2018-07-12T17:09:59.180Z,2.70
2018-07-12T17:12:27.680Z,2.67
2018-07-12T17:14:55.820Z,2.87
2018-07-12T17:17:24.304Z,2.70
2018-07-12T17:19:52.768Z,2.87
2018-07-12T17:22:21.256Z,3.10
2018-07-12T17:24:49.383Z,2.70
2018-07-12T17:27:17.561Z,5.60
2018-07-12T17:29:46.025Z,2.57
2018-07-12T17:32:14.160Z,2.93
2018-07-12T17:34:42.644Z,5.27
2018-07-12T17:37:11.113Z,2.87
2018-07-12T17:39:39.572Z,3.00
2018-07-12T17:42:08.084Z,11.13
2018-07-12T17:44:36.577Z,41.40
2018-07-12T17:47:05.136Z,3.93
2018-07-12T17:49:33.596Z,2.70
2018-07-12T17:52:02.082Z,2.90
2018-07-12T17:54:30.572Z,3.23
2018-07-12T17:56:59.029Z,3.03
2018-07-12T17:59:27.500Z,3.13
2018-07-12T18:01:55.635Z,2.90
2018-07-12T18:04:24.085Z,3.40
2018-07-12T18:06:52.600Z,3.10
2018-07-12T18:09:21.068Z,3.10
2018-07-12T18:11:49.544Z,25.00
2018-07-12T18:14:18.084Z,5.27
2018-07-12T18:16:46.501Z,3.10
2018-07-12T18:19:14.989Z,3.30
2018-07-12T18:21:43.481Z,4.13
2018-07-12T18:24:11.967Z,3.00
2018-07-12T18:26:40.422Z,2.93
2018-07-12T18:29:08.892Z,3.47
2018-07-12T18:31:37.390Z,3.23
2018-07-12T18:34:06.028Z,3.30
2018-07-12T18:36:35.807Z,3.03
2018-07-12T18:39:05.560Z,3.20
2018-07-12T18:41:34.073Z,3.20
2018-07-12T18:44:02.593Z,3.20
2018-07-12T18:46:31.134Z,3.33
2018-07-12T18:48:59.678Z,3.10
2018-07-12T18:51:28.191Z,3.17
2018-07-12T18:53:56.716Z,3.73
2018-07-12T18:56:25.290Z,3.47
2018-07-12T18:58:53.813Z,3.80
2018-07-12T19:01:22.038Z,3.90
2018-07-12T19:03:50.573Z,3.23
2018-07-12T19:06:19.153Z,4.87
2018-07-12T19:08:47.710Z,3.93
2018-07-12T19:11:16.294Z,3.47
2018-07-12T19:13:45.158Z,3.80
2018-07-12T19:16:13.682Z,4.07
2018-07-12T19:18:42.235Z,3.77
2018-07-12T19:21:10.799Z,3.67
2018-07-12T19:23:39.313Z,4.73
2018-07-12T19:26:07.857Z,3.23
2018-07-12T19:28:36.361Z,3.77
2018-07-12T19:31:05.029Z,5.33
2018-07-12T19:33:33.568Z,5.40
2018-07-12T19:36:02.099Z,3.87
2018-07-12T19:38:30.728Z,3.60
2018-07-12T19:40:59.661Z,3.80
2018-07-12T19:43:28.189Z,4.90
2018-07-12T19:45:56.738Z,4.37
2018-07-12T19:48:25.298Z,3.90
2018-07-12T19:50:53.464Z,3.80
2018-07-12T19:53:21.974Z,4.20
2018-07-12T19:55:50.527Z,4.50
2018-07-12T19:58:19.039Z,3.77
2018-07-12T20:00:47.575Z,4.80
2018-07-12T20:03:16.126Z,5.23
2018-07-12T20:05:44.679Z,4.60
2018-07-12T20:08:13.225Z,4.57
2018-07-12T20:10:41.745Z,4.00
2018-07-12T20:13:10.309Z,4.23
2018-07-12T20:15:38.866Z,4.07
2018-07-12T20:18:07.861Z,5.03
2018-07-12T20:20:36.514Z,3.90
2018-07-12T20:23:05.022Z,3.90
2018-07-12T20:25:33.581Z,4.33
2018-07-12T20:28:02.117Z,4.20
2018-07-12T20:30:30.685Z,3.93
2018-07-12T20:32:59.209Z,4.23
2018-07-12T20:35:27.786Z,4.43
2018-07-12T20:37:56.878Z,4.70
2018-07-12T20:40:25.408Z,4.30
2018-07-12T20:42:53.962Z,4.17
2018-07-12T20:45:22.534Z,4.60
2018-07-12T20:47:51.102Z,5.00
2018-07-12T20:50:19.288Z,5.23
2018-07-12T20:52:47.818Z,6.03
2018-07-12T20:55:16.401Z,4.50
2018-07-12T20:57:44.934Z,4.83
2018-07-12T21:00:13.501Z,4.57
2018-07-12T21:02:41.699Z,4.53
2018-07-12T21:05:10.274Z,4.83
2018-07-12T21:07:38.912Z,4.93
2018-07-12T21:10:07.887Z,4.50
2018-07-12T21:12:36.453Z,4.23
2018-07-12T21:15:05.176Z,4.20
2018-07-12T21:17:33.774Z,4.20
2018-07-12T21:20:02.301Z,4.60
2018-07-12T21:22:31.101Z,4.90
2018-07-12T21:24:59.682Z,4.40
2018-07-12T21:27:28.204Z,4.57
2018-07-12T21:29:56.750Z,4.30
2018-07-12T21:32:25.322Z,5.10
2018-07-12T21:34:53.851Z,5.30
2018-07-12T21:37:22.400Z,4.97
2018-07-12T21:39:50.906Z,6.83
2018-07-12T21:42:19.486Z,5.43
2018-07-12T21:44:48.016Z,4.60
2018-07-12T21:47:16.248Z,4.70
2018-07-12T21:49:44.757Z,5.07
2018-07-12T21:52:13.245Z,4.77
2018-07-12T21:54:41.862Z,4.87
2018-07-12T21:57:10.377Z,4.50
2018-07-12T21:59:38.982Z,4.70
2018-07-12T22:02:07.818Z,4.83
2018-07-12T22:04:36.390Z,5.33
2018-07-12T22:08:21.790Z,5.30
2018-07-12T22:10:51.682Z,5.50
2018-07-12T22:13:20.884Z,5.10
2018-07-12T22:15:49.501Z,5.47
2018-07-12T22:18:18.027Z,5.30
2018-07-12T22:20:46.492Z,5.03
2018-07-12T22:23:14.981Z,5.67
2018-07-12T22:25:43.523Z,5.90
2018-07-12T22:28:11.981Z,5.20
2018-07-12T22:30:40.541Z,5.20
2018-07-12T22:33:08.969Z,5.77
2018-07-12T22:35:37.468Z,5.47
2018-07-12T22:38:05.989Z,5.80
2018-07-12T22:40:34.472Z,6.00
2018-07-12T22:43:02.960Z,5.03
2018-07-12T22:45:31.448Z,8.50
2018-07-12T22:47:59.711Z,5.33
2018-07-12T22:50:28.200Z,5.40
2018-07-12T22:52:56.664Z,5.70
2018-07-12T22:55:25.148Z,5.70
2018-07-12T22:57:53.604Z,5.57
2018-07-12T23:00:22.115Z,5.30
2018-07-12T23:02:50.576Z,6.17
2018-07-12T23:05:19.089Z,6.60
2018-07-12T23:07:47.580Z,6.40
2018-07-12T23:10:15.716Z,5.73
2018-07-12T23:12:44.205Z,5.60
2018-07-12T23:15:12.677Z,5.50
2018-07-12T23:17:41.421Z,6.33
2018-07-12T23:20:09.884Z,6.10
2018-07-12T23:22:38.020Z,5.80
2018-07-12T23:25:06.495Z,6.00
2018-07-12T23:27:34.961Z,5.53
2018-07-12T23:30:03.537Z,6.13
2018-07-12T23:32:31.999Z,6.10
2018-07-12T23:35:00.497Z,6.20
2018-07-12T23:37:28.961Z,6.37
2018-07-12T23:39:57.424Z,6.60
2018-07-12T23:42:25.579Z,6.10
2018-07-12T23:44:54.041Z,6.83
2018-07-12T23:47:22.549Z,6.90
2018-07-12T23:49:51.007Z,6.73
2018-07-12T23:52:19.504Z,6.67
2018-07-12T23:54:47.967Z,6.40
2018-07-12T23:57:16.428Z,6.60
2018-07-12T23:59:44.916Z,6.43
